KVJI/VJI METAR and TAF weather

Enter ICAO airport designator
Station Type Date Time Source
KVJI METAR 2019/06/26 15:55 UTC NOAA

KVJI 261555Z AUTO 24004KT 10SM SCT030 25/18 A3027 RMK AO2 T02500182


Station Type Date Time Source
KVJI Decoded METAR 2019/06/26 15:55 UTC NOAA

Abingdon, VA, United States (KVJI) 36-41N 082-02W
Jun 26, 2019 - 11:55 AM EDT / 2019.06.26 1555 UTC
Wind: from the WSW (240 degrees) at 5 MPH (4 KT):0
Visibility: 10 mile(s):0
Sky conditions: partly cloudy
Temperature: 77.0 F (25.0 C)
Dew Point: 64.8 F (18.2 C)
Relative Humidity: 65%
Pressure (altimeter): 30.27 in. Hg (1025 hPa)
ob: KVJI 261555Z AUTO 24004KT 10SM SCT030 25/18 A3027 RMK AO2 T02500182
cycle: 16

Station Type Date Time Source
KVJI TAF UTC NOAA

Error!

Example: see airport list